Henderson, Maryland
Current Conditions -  °F | °C
As of 2:58 AM on Wednesday 26 Nov 2014 (Local Time) from KDOV Reporting Station
Light Rain Light Rain  
Wind Chill:   Ceiling: 5000
Heat Index:   Visibility: 10mi
Dew Point:   Wind: 8mph
Humidity: 93%   Direction: 30°NNE
Pressure: 30.11"   Gusts: NA
Location:  39.07°N, 75.77°W
Report Text: KDOV 260758Z AUTO 03007KT 10SM -RA SCT040 BKN050 07/06 A3011 RMK AO2 SLP200 P0002 T00730062
Loading
Personal Weather Stations






























Interactive Weather Map New forecast layout! Learn more

10-Day Weather Forecast

Advertisements
Track Severe Weather on mobile